createdAt,value
2018-11-02T00:01:46.397Z,14.81
2018-11-02T00:04:15.159Z,14.85
2018-11-02T00:06:43.630Z,14.78
2018-11-02T00:09:12.126Z,14.70
2018-11-02T00:11:40.617Z,14.42
2018-11-02T00:14:09.092Z,14.44
2018-11-02T00:16:37.585Z,14.49
2018-11-02T00:19:06.512Z,14.54
2018-11-02T00:21:35.000Z,14.48
2018-11-02T00:24:03.715Z,14.73
2018-11-02T00:26:32.228Z,14.37
2018-11-02T00:29:00.700Z,14.37
2018-11-02T00:31:29.307Z,14.37
2018-11-02T00:33:57.764Z,14.35
2018-11-02T00:36:26.244Z,14.53
2018-11-02T00:38:54.731Z,14.32
2018-11-02T00:41:23.242Z,14.36
2018-11-02T00:43:51.773Z,14.26
2018-11-02T00:46:20.335Z,14.30
2018-11-02T00:48:48.843Z,14.93
2018-11-02T00:51:17.327Z,14.64
2018-11-02T00:53:45.819Z,14.32
2018-11-02T00:56:14.303Z,14.60
2018-11-02T00:58:42.795Z,15.28
2018-11-02T01:01:11.285Z,15.04
2018-11-02T01:03:39.843Z,14.79
2018-11-02T01:06:08.323Z,15.34
2018-11-02T01:08:36.828Z,14.72
2018-11-02T01:11:05.847Z,14.43
2018-11-02T01:13:34.557Z,14.69
2018-11-02T01:16:03.267Z,14.69
2018-11-02T01:18:31.753Z,14.70
2018-11-02T01:21:00.241Z,14.21
2018-11-02T01:23:28.696Z,15.11
2018-11-02T01:25:57.241Z,14.48
2018-11-02T01:28:25.763Z,14.74
2018-11-02T01:30:54.239Z,14.31
2018-11-02T01:33:28.034Z,14.92
2018-11-02T01:35:56.715Z,14.09
2018-11-02T01:38:25.195Z,14.30
2018-11-02T01:40:53.652Z,14.16
2018-11-02T01:43:22.578Z,14.38
2018-11-02T01:45:51.870Z,14.01
2018-11-02T01:48:20.393Z,13.99
2018-11-02T01:51:03.579Z,13.91
2018-11-02T01:53:32.116Z,14.16
2018-11-02T01:56:00.615Z,14.17
2018-11-02T01:58:29.643Z,13.85
2018-11-02T02:00:58.144Z,14.25
2018-11-02T02:04:29.339Z,14.16
2018-11-02T02:06:57.940Z,13.90
2018-11-02T02:09:26.440Z,13.88
2018-11-02T02:11:55.035Z,13.65
2018-11-02T02:14:23.599Z,13.60
2018-11-02T02:16:52.732Z,13.85
2018-11-02T02:19:21.290Z,13.97
2018-11-02T02:21:49.837Z,13.94
2018-11-02T02:24:18.316Z,14.06
2018-11-02T02:26:46.841Z,14.34
2018-11-02T02:29:15.460Z,14.17
2018-11-02T02:31:43.940Z,14.26
2018-11-02T02:34:12.836Z,14.26
2018-11-02T02:36:41.644Z,14.11
2018-11-02T02:39:10.938Z,14.48
2018-11-02T02:41:40.010Z,14.55
2018-11-02T02:44:08.747Z,14.60
2018-11-02T02:46:37.267Z,15.09
2018-11-02T02:49:06.688Z,15.12
2018-11-02T02:51:35.201Z,14.91
2018-11-02T02:54:04.123Z,14.84
2018-11-02T02:56:32.632Z,14.50
2018-11-02T02:59:01.368Z,14.64
2018-11-02T03:01:29.887Z,14.56
2018-11-02T03:03:58.391Z,14.89
2018-11-02T03:06:27.139Z,15.21
2018-11-02T03:08:56.015Z,15.19
2018-11-02T03:11:24.801Z,15.58
2018-11-02T03:13:53.291Z,15.04
2018-11-02T03:16:21.911Z,15.39
2018-11-02T03:18:50.493Z,15.31
2018-11-02T03:21:18.962Z,15.33
2018-11-02T03:23:47.475Z,14.88
2018-11-02T03:26:15.971Z,14.46
2018-11-02T03:28:44.468Z,14.65
2018-11-02T03:31:13.068Z,14.30
2018-11-02T03:33:41.737Z,14.37
2018-11-02T03:36:10.266Z,14.52
2018-11-02T03:38:38.858Z,14.60
2018-11-02T03:41:07.554Z,15.00
2018-11-02T03:43:36.085Z,14.51
2018-11-02T03:46:04.915Z,13.98
2018-11-02T03:48:33.708Z,14.44
2018-11-02T03:51:02.245Z,14.66
2018-11-02T03:53:30.730Z,14.48
2018-11-02T03:55:59.743Z,14.92
2018-11-02T03:58:28.236Z,14.70
2018-11-02T04:00:57.047Z,15.00
2018-11-02T04:03:25.535Z,14.95
2018-11-02T04:05:54.084Z,14.52
2018-11-02T04:08:22.689Z,14.88
2018-11-02T04:10:51.141Z,14.67
2018-11-02T04:13:19.690Z,14.64
2018-11-02T04:15:48.224Z,14.70
2018-11-02T04:18:16.722Z,15.24
2018-11-02T04:20:45.288Z,17.91
2018-11-02T04:23:13.801Z,18.27
2018-11-02T04:25:42.725Z,18.59
2018-11-02T04:28:11.268Z,17.39
2018-11-02T04:30:39.798Z,17.07
2018-11-02T04:33:08.511Z,18.36
2018-11-02T04:35:37.196Z,17.65
2018-11-02T04:38:06.147Z,16.55
2018-11-02T04:40:34.703Z,15.83
2018-11-02T04:43:03.184Z,15.73
2018-11-02T04:45:36.885Z,14.90
2018-11-02T04:48:05.953Z,15.04
2018-11-02T04:50:34.515Z,15.47
2018-11-02T04:53:03.791Z,14.94
2018-11-02T04:55:32.276Z,14.80
2018-11-02T04:58:01.099Z,14.60
2018-11-02T05:00:29.772Z,14.19
2018-11-02T05:02:58.707Z,14.69
2018-11-02T05:05:27.367Z,14.81
2018-11-02T05:07:55.868Z,14.59
2018-11-02T05:10:24.331Z,14.89
2018-11-02T05:12:52.837Z,14.76
2018-11-02T05:15:21.302Z,15.19
2018-11-02T05:17:50.039Z,14.80
2018-11-02T05:20:18.550Z,14.56
2018-11-02T05:22:47.055Z,14.29
2018-11-02T05:25:15.675Z,14.80
2018-11-02T05:27:44.516Z,14.73
2018-11-02T05:30:13.086Z,14.72
2018-11-02T05:32:41.581Z,14.98
2018-11-02T05:35:10.126Z,14.89
2018-11-02T05:37:38.604Z,14.53
2018-11-02T05:40:08.494Z,14.44
2018-11-02T05:42:37.010Z,14.43
2018-11-02T05:45:06.764Z,14.65
2018-11-02T05:47:35.431Z,15.03
2018-11-02T05:50:03.933Z,15.21
2018-11-02T05:52:32.627Z,15.11
2018-11-02T05:55:01.348Z,14.90
2018-11-02T05:57:29.825Z,14.69
2018-11-02T05:59:58.379Z,15.09
2018-11-02T06:02:26.853Z,14.85
2018-11-02T06:04:55.990Z,14.98
2018-11-02T06:07:24.489Z,15.22
2018-11-02T06:09:52.968Z,15.41
2018-11-02T06:12:21.511Z,15.18
2018-11-02T06:14:50.008Z,15.20
2018-11-02T06:17:18.667Z,15.28
2018-11-02T06:19:47.287Z,14.96
2018-11-02T06:22:16.215Z,14.90
2018-11-02T06:24:45.020Z,14.80
2018-11-02T06:27:13.591Z,14.67
2018-11-02T06:29:42.138Z,14.54
2018-11-02T06:32:10.629Z,14.79
2018-11-02T06:34:39.412Z,15.09
2018-11-02T06:37:08.256Z,15.12
2018-11-02T06:39:36.762Z,15.28
2018-11-02T06:42:05.660Z,15.61
2018-11-02T06:44:34.366Z,15.74
2018-11-02T06:47:02.882Z,15.35
2018-11-02T06:49:31.363Z,15.75
2018-11-02T06:51:59.815Z,15.96
2018-11-02T06:54:28.301Z,16.04
2018-11-02T06:56:56.801Z,16.65
2018-11-02T06:59:25.533Z,16.24
2018-11-02T07:01:53.917Z,16.02
2018-11-02T07:04:22.375Z,16.03
2018-11-02T07:06:50.924Z,16.00
2018-11-02T07:09:19.407Z,15.91
2018-11-02T07:11:47.892Z,16.02
2018-11-02T07:14:16.437Z,15.96
2018-11-02T07:16:45.371Z,15.67
2018-11-02T07:19:13.840Z,15.82
2018-11-02T07:21:42.346Z,15.27
2018-11-02T07:24:10.894Z,15.55
2018-11-02T07:26:39.375Z,15.37
2018-11-02T07:29:08.956Z,15.26
2018-11-02T07:31:37.501Z,15.44
2018-11-02T07:34:06.782Z,15.79
2018-11-02T07:36:35.362Z,16.12
2018-11-02T07:39:04.631Z,16.14
2018-11-02T07:41:33.096Z,16.28
2018-11-02T07:44:01.607Z,16.73
2018-11-02T07:46:30.070Z,16.90
2018-11-02T07:48:58.572Z,16.84
2018-11-02T07:51:27.229Z,16.72
2018-11-02T07:53:55.934Z,16.78
2018-11-02T07:56:24.459Z,16.71
2018-11-02T07:58:53.327Z,16.82
2018-11-02T08:01:21.985Z,16.11
2018-11-02T08:03:50.501Z,16.40
2018-11-02T08:06:18.974Z,16.25
2018-11-02T08:08:47.936Z,15.66
2018-11-02T08:11:16.534Z,16.38
2018-11-02T08:13:45.009Z,16.13
2018-11-02T08:16:13.519Z,15.76
2018-11-02T08:18:41.977Z,15.80
2018-11-02T08:21:10.453Z,15.98
2018-11-02T08:23:38.918Z,16.53
2018-11-02T08:26:07.443Z,16.08
2018-11-02T08:28:35.929Z,15.70
2018-11-02T08:31:04.421Z,15.83
2018-11-02T08:33:32.893Z,15.62
2018-11-02T08:36:01.517Z,15.55
2018-11-02T08:38:29.984Z,15.77
2018-11-02T08:40:59.140Z,16.08
2018-11-02T08:43:27.579Z,16.38
2018-11-02T08:45:56.219Z,16.31
2018-11-02T08:48:24.669Z,16.50
2018-11-02T08:50:53.133Z,16.66
2018-11-02T08:53:21.631Z,16.93
2018-11-02T08:55:50.184Z,16.63
2018-11-02T08:58:18.834Z,16.59
2018-11-02T09:00:47.427Z,16.20
2018-11-02T09:03:15.899Z,16.09
2018-11-02T09:05:44.375Z,15.84
2018-11-02T09:08:12.839Z,15.97
2018-11-02T09:10:41.294Z,16.35
2018-11-02T09:13:10.088Z,15.92
2018-11-02T09:15:38.600Z,15.64
2018-11-02T09:18:07.092Z,16.11
2018-11-02T09:20:35.680Z,15.99
2018-11-02T09:23:04.133Z,15.93
2018-11-02T09:25:32.665Z,16.13
2018-11-02T09:28:01.420Z,16.89
2018-11-02T09:30:29.847Z,16.24
2018-11-02T09:32:58.422Z,16.02
2018-11-02T09:35:26.900Z,16.56
2018-11-02T09:37:55.390Z,16.62
2018-11-02T09:40:23.945Z,16.29
2018-11-02T09:42:52.535Z,16.42
2018-11-02T09:45:20.826Z,17.24
2018-11-02T09:47:49.314Z,17.26
2018-11-02T09:50:17.794Z,16.62
2018-11-02T09:52:46.308Z,17.86
2018-11-02T09:55:15.887Z,17.41
2018-11-02T09:57:45.642Z,17.48
2018-11-02T10:00:14.852Z,17.06
2018-11-02T10:02:43.371Z,17.83
2018-11-02T10:05:12.683Z,17.91
2018-11-02T10:07:41.749Z,18.03
2018-11-02T10:10:11.873Z,17.58
2018-11-02T10:12:40.646Z,18.16
2018-11-02T10:15:11.962Z,18.41
2018-11-02T10:17:40.486Z,19.08
2018-11-02T10:20:09.937Z,19.07
2018-11-02T10:22:38.711Z,19.33
2018-11-02T10:25:08.158Z,19.55
2018-11-02T10:27:37.013Z,19.47
2018-11-02T10:30:07.643Z,19.38
2018-11-02T10:32:36.175Z,20.46
2018-11-02T10:35:05.016Z,19.29
2018-11-02T10:37:33.684Z,20.18
2018-11-02T10:40:02.404Z,20.43
2018-11-02T10:42:30.962Z,20.79
2018-11-02T10:44:59.592Z,20.81
2018-11-02T10:47:28.036Z,21.14
2018-11-02T10:49:56.554Z,20.99
2018-11-02T10:52:25.047Z,20.79
2018-11-02T10:54:53.608Z,20.57
2018-11-02T10:57:22.100Z,20.59
2018-11-02T10:59:50.578Z,20.58
2018-11-02T11:02:24.868Z,20.01
2018-11-02T11:04:53.348Z,20.36
2018-11-02T11:07:21.914Z,20.51
2018-11-02T11:09:50.421Z,19.69
2018-11-02T11:12:19.092Z,19.29
2018-11-02T11:14:47.764Z,19.40
2018-11-02T11:17:16.427Z,20.26
2018-11-02T11:19:44.923Z,19.54
2018-11-02T11:22:13.464Z,19.18
2018-11-02T11:24:41.946Z,19.39
2018-11-02T11:27:10.530Z,19.13
2018-11-02T11:29:38.987Z,18.87
2018-11-02T11:32:07.754Z,19.11
2018-11-02T11:34:36.235Z,18.90
2018-11-02T11:37:05.292Z,19.08
2018-11-02T11:39:33.887Z,19.07
2018-11-02T11:42:02.335Z,19.04
2018-11-02T11:44:31.059Z,18.62
2018-11-02T11:46:59.870Z,18.42
2018-11-02T11:49:28.428Z,17.93
2018-11-02T11:51:56.944Z,18.70
2018-11-02T11:54:25.817Z,18.58
2018-11-02T11:56:54.491Z,17.85
2018-11-02T11:59:23.018Z,17.62
2018-11-02T12:01:51.515Z,18.10
2018-11-02T12:04:20.314Z,18.77
2018-11-02T12:06:48.949Z,18.57
2018-11-02T12:09:17.426Z,18.58
2018-11-02T12:11:46.031Z,18.36
2018-11-02T12:14:14.836Z,18.53
2018-11-02T12:16:43.377Z,19.51
2018-11-02T12:19:11.907Z,19.56
2018-11-02T12:21:40.446Z,19.78
2018-11-02T12:24:08.923Z,19.23
2018-11-02T12:26:37.480Z,19.01
2018-11-02T12:29:06.397Z,19.45
2018-11-02T12:31:34.904Z,19.77
2018-11-02T12:34:03.381Z,19.89
2018-11-02T12:36:32.207Z,19.72
2018-11-02T12:39:01.421Z,19.54
2018-11-02T12:41:29.922Z,19.08
2018-11-02T12:43:58.464Z,19.36
2018-11-02T12:46:26.969Z,19.13
2018-11-02T12:48:55.759Z,19.46
2018-11-02T12:51:24.107Z,19.31
2018-11-02T12:53:52.657Z,19.23
2018-11-02T12:56:21.854Z,19.01
2018-11-02T12:58:50.511Z,19.83
2018-11-02T13:01:19.000Z,20.01
2018-11-02T13:03:47.477Z,19.77
2018-11-02T13:06:16.152Z,19.50
2018-11-02T13:08:44.686Z,20.05
2018-11-02T13:11:13.200Z,20.16
2018-11-02T13:13:41.750Z,19.51
2018-11-02T13:16:10.476Z,19.50
2018-11-02T13:18:39.088Z,19.67
2018-11-02T13:21:07.623Z,19.45
2018-11-02T13:23:36.162Z,19.70
2018-11-02T13:26:05.165Z,19.44
2018-11-02T13:28:33.988Z,19.06
2018-11-02T13:31:02.557Z,18.24
2018-11-02T13:33:30.977Z,18.64
2018-11-02T13:35:59.561Z,18.76
2018-11-02T13:38:28.016Z,18.81
2018-11-02T13:40:56.512Z,18.73
2018-11-02T13:43:25.009Z,18.36
2018-11-02T13:45:53.449Z,18.18
2018-11-02T13:48:21.976Z,18.40
2018-11-02T13:50:50.532Z,18.66
2018-11-02T13:53:19.007Z,18.54
2018-11-02T13:55:47.518Z,18.79
2018-11-02T13:58:16.179Z,18.56
2018-11-02T14:00:44.683Z,18.51
2018-11-02T14:03:13.188Z,18.49
2018-11-02T14:05:41.863Z,17.92
2018-11-02T14:08:10.380Z,18.37
2018-11-02T14:10:39.060Z,18.45
2018-11-02T14:13:07.592Z,18.84
2018-11-02T14:15:36.065Z,18.89
2018-11-02T14:18:04.572Z,19.14
2018-11-02T14:20:33.088Z,19.33
2018-11-02T14:23:01.594Z,18.88
2018-11-02T14:25:30.347Z,18.74
2018-11-02T14:27:58.948Z,18.89
2018-11-02T14:30:28.391Z,18.79
2018-11-02T14:32:56.864Z,18.20
2018-11-02T14:35:25.406Z,18.50
2018-11-02T14:37:54.187Z,19.06
2018-11-02T14:40:22.696Z,19.19
2018-11-02T14:42:51.433Z,18.66
2018-11-02T14:45:19.941Z,19.01
2018-11-02T14:47:49.372Z,19.06
2018-11-02T14:50:17.924Z,18.56
2018-11-02T14:52:46.479Z,18.95
2018-11-02T14:55:14.983Z,18.78
2018-11-02T14:57:43.514Z,18.82
2018-11-02T15:00:12.780Z,19.16
2018-11-02T15:02:41.981Z,19.33
2018-11-02T15:05:12.540Z,18.69
2018-11-02T15:07:41.894Z,18.73
2018-11-02T15:10:10.615Z,18.66
2018-11-02T15:12:39.888Z,18.91
2018-11-02T15:15:09.128Z,18.73
2018-11-02T15:17:37.635Z,18.80
2018-11-02T15:20:08.655Z,18.78
2018-11-02T15:22:37.517Z,18.82
2018-11-02T15:25:06.870Z,18.17
2018-11-02T15:27:35.400Z,17.62
2018-11-02T15:30:04.210Z,18.35
2018-11-02T15:32:32.736Z,18.17
2018-11-02T15:35:01.189Z,17.88
2018-11-02T15:37:29.728Z,17.90
2018-11-02T15:39:58.532Z,17.74
2018-11-02T15:42:27.000Z,17.92
2018-11-02T15:44:55.483Z,18.23
2018-11-02T15:47:23.967Z,18.05
2018-11-02T15:49:52.501Z,18.12
2018-11-02T15:52:21.159Z,17.41
2018-11-02T15:54:49.695Z,17.30
2018-11-02T15:57:18.203Z,18.28
2018-11-02T15:59:46.899Z,17.62
2018-11-02T16:02:15.393Z,17.73
2018-11-02T16:04:44.186Z,17.69
2018-11-02T16:07:12.740Z,17.34
2018-11-02T16:09:41.462Z,17.41
2018-11-02T16:12:10.183Z,17.83
2018-11-02T16:14:38.754Z,17.53
2018-11-02T16:17:07.227Z,17.30
2018-11-02T16:19:35.951Z,17.51
2018-11-02T16:22:04.494Z,17.13
2018-11-02T16:24:32.996Z,17.47
2018-11-02T16:27:01.444Z,17.13
2018-11-02T16:29:29.937Z,16.84
2018-11-02T16:31:58.442Z,17.02
2018-11-02T16:34:26.917Z,16.63
2018-11-02T16:36:55.441Z,16.70
2018-11-02T16:39:23.920Z,17.30
2018-11-02T16:41:52.409Z,17.07
2018-11-02T16:44:21.011Z,16.69
2018-11-02T16:46:49.384Z,17.52
2018-11-02T16:49:17.922Z,17.46
2018-11-02T16:51:46.408Z,17.54
2018-11-02T16:54:14.923Z,17.99
2018-11-02T16:56:43.492Z,17.72
2018-11-02T16:59:11.976Z,18.00
2018-11-02T17:01:40.777Z,17.79
2018-11-02T17:04:09.483Z,16.99
2018-11-02T17:06:38.014Z,17.77
2018-11-02T17:09:10.108Z,17.87
2018-11-02T17:11:38.700Z,17.58
2018-11-02T17:14:07.832Z,17.53
2018-11-02T17:16:36.684Z,17.48
2018-11-02T17:19:05.604Z,17.43
2018-11-02T17:21:34.133Z,16.98
2018-11-02T17:24:03.436Z,16.84
2018-11-02T17:26:32.274Z,16.27
2018-11-02T17:29:01.246Z,16.53
2018-11-02T17:31:30.087Z,16.17
2018-11-02T17:33:58.535Z,16.24
2018-11-02T17:36:27.230Z,15.68
2018-11-02T17:38:55.562Z,16.23
2018-11-02T17:41:24.219Z,16.43
2018-11-02T17:43:52.690Z,16.24
2018-11-02T17:46:21.301Z,16.08
2018-11-02T17:48:50.054Z,15.79
2018-11-02T17:51:18.487Z,16.15
2018-11-02T17:53:47.312Z,16.10
2018-11-02T17:56:15.861Z,15.88
2018-11-02T17:58:44.619Z,16.04
2018-11-02T18:01:13.258Z,16.19
2018-11-02T18:03:42.114Z,17.05
2018-11-02T18:06:10.591Z,17.13
2018-11-02T18:08:39.194Z,16.46
2018-11-02T18:11:07.748Z,17.00
2018-11-02T18:13:36.566Z,17.02
2018-11-02T18:16:06.038Z,16.85
2018-11-02T18:18:34.872Z,16.71
2018-11-02T18:21:03.912Z,17.46
2018-11-02T18:23:32.397Z,16.73
2018-11-02T18:26:01.144Z,16.58
2018-11-02T18:28:29.658Z,16.35
2018-11-02T18:30:58.401Z,16.57
2018-11-02T18:33:26.923Z,16.60
2018-11-02T18:35:55.547Z,16.41
2018-11-02T18:38:24.524Z,17.03
2018-11-02T18:40:53.022Z,16.74
2018-11-02T18:43:21.474Z,16.38
2018-11-02T18:45:50.224Z,16.13
2018-11-02T18:48:20.615Z,16.53
2018-11-02T18:50:49.379Z,16.29
2018-11-02T18:53:17.861Z,16.24
2018-11-02T18:55:46.359Z,15.82
2018-11-02T18:58:14.842Z,16.10
2018-11-02T19:00:43.830Z,16.12
2018-11-02T19:03:12.301Z,16.17
2018-11-02T19:05:40.809Z,16.32
2018-11-02T19:08:09.247Z,16.09
2018-11-02T19:10:37.768Z,15.90
2018-11-02T19:13:06.968Z,16.00
2018-11-02T19:15:35.446Z,16.48
2018-11-02T19:18:03.950Z,16.92
2018-11-02T19:20:32.478Z,16.82
2018-11-02T19:23:01.410Z,16.44
2018-11-02T19:25:30.132Z,15.79
2018-11-02T19:27:58.586Z,15.64
2018-11-02T19:30:27.117Z,15.44
2018-11-02T19:32:55.738Z,15.88
2018-11-02T19:35:24.719Z,15.93
2018-11-02T19:37:53.169Z,15.57
2018-11-02T19:40:21.754Z,15.74
2018-11-02T19:42:50.276Z,15.04
2018-11-02T19:45:18.818Z,15.33
2018-11-02T19:48:02.849Z,15.24
2018-11-02T19:50:31.424Z,14.95
2018-11-02T19:52:59.836Z,14.59
2018-11-02T19:55:28.579Z,14.94
2018-11-02T19:57:57.095Z,14.86
2018-11-02T20:00:25.719Z,14.91
2018-11-02T20:02:54.219Z,14.93
2018-11-02T20:05:22.696Z,14.73
2018-11-02T20:07:51.203Z,15.13
2018-11-02T20:10:19.716Z,14.92
2018-11-02T20:12:49.069Z,14.68
2018-11-02T20:15:18.066Z,14.74
2018-11-02T20:17:46.923Z,14.70
2018-11-02T20:20:16.403Z,14.95
2018-11-02T20:22:45.134Z,15.00
2018-11-02T20:25:15.264Z,14.80
2018-11-02T20:27:44.352Z,14.94
2018-11-02T20:30:21.511Z,15.22
2018-11-02T20:32:50.048Z,15.07
2018-11-02T20:35:18.560Z,14.86
2018-11-02T20:37:47.060Z,14.84
2018-11-02T20:40:17.602Z,15.00
2018-11-02T20:42:46.544Z,15.16
2018-11-02T20:45:15.679Z,15.19
2018-11-02T20:47:48.200Z,15.14
2018-11-02T20:50:17.251Z,15.62
2018-11-02T20:52:45.771Z,15.98
2018-11-02T20:55:15.164Z,15.68
2018-11-02T20:57:44.066Z,15.61
2018-11-02T21:00:14.736Z,15.81
2018-11-02T21:02:43.906Z,15.46
2018-11-02T21:05:14.464Z,15.50
2018-11-02T21:07:43.577Z,15.29
2018-11-02T21:10:13.512Z,15.09
2018-11-02T21:12:42.304Z,15.34
2018-11-02T21:15:14.091Z,15.46
2018-11-02T21:17:42.721Z,15.20
2018-11-02T21:20:13.406Z,15.06
2018-11-02T21:22:42.809Z,15.21
2018-11-02T21:25:12.394Z,14.89
2018-11-02T21:27:41.819Z,14.96
2018-11-02T21:30:14.759Z,14.79
2018-11-02T21:32:44.158Z,15.01
2018-11-02T21:35:12.661Z,14.90
2018-11-02T21:37:41.168Z,15.07
2018-11-02T21:40:13.709Z,14.71
2018-11-02T21:42:42.792Z,15.10
2018-11-02T21:45:12.151Z,14.89
2018-11-02T21:47:40.612Z,14.89
2018-11-02T21:50:10.140Z,15.07
2018-11-02T21:52:38.632Z,14.95
2018-11-02T21:55:07.804Z,14.85
2018-11-02T21:57:36.636Z,14.85
2018-11-02T22:00:07.039Z,14.63
2018-11-02T22:02:35.766Z,14.79
2018-11-02T22:05:04.349Z,14.89
2018-11-02T22:07:32.870Z,14.81
2018-11-02T22:10:01.468Z,14.58
2018-11-02T22:12:29.980Z,14.97
2018-11-02T22:14:58.456Z,14.95
2018-11-02T22:17:27.244Z,14.66
2018-11-02T22:19:56.041Z,15.03
2018-11-02T22:22:24.592Z,14.39
2018-11-02T22:24:53.287Z,14.66
2018-11-02T22:27:21.912Z,15.08
2018-11-02T22:29:50.354Z,14.45
2018-11-02T22:32:19.024Z,14.61
2018-11-02T22:34:47.543Z,14.47
2018-11-02T22:37:16.114Z,14.49
2018-11-02T22:39:44.692Z,14.63
2018-11-02T22:42:13.191Z,14.62
2018-11-02T22:44:42.075Z,14.84
2018-11-02T22:47:10.863Z,15.10
2018-11-02T22:49:39.321Z,14.78
2018-11-02T22:52:07.842Z,14.55
2018-11-02T22:54:36.522Z,14.72
2018-11-02T22:57:05.063Z,14.86
2018-11-02T22:59:33.571Z,14.66
2018-11-02T23:02:02.097Z,15.06
2018-11-02T23:04:30.766Z,14.68
2018-11-02T23:06:59.312Z,14.56
2018-11-02T23:09:27.814Z,15.02
2018-11-02T23:11:56.330Z,14.98
2018-11-02T23:14:24.799Z,15.23
2018-11-02T23:16:53.337Z,14.97
2018-11-02T23:19:21.877Z,15.12
2018-11-02T23:21:50.300Z,15.12
2018-11-02T23:24:18.859Z,15.17
2018-11-02T23:26:47.317Z,15.03
2018-11-02T23:29:15.850Z,15.30
2018-11-02T23:31:44.360Z,15.29
2018-11-02T23:34:12.820Z,15.12
2018-11-02T23:36:41.345Z,15.42
2018-11-02T23:39:10.253Z,15.56
2018-11-02T23:41:38.886Z,15.46
2018-11-02T23:44:07.384Z,15.72
2018-11-02T23:46:35.915Z,14.72
2018-11-02T23:49:04.455Z,15.33
2018-11-02T23:51:32.951Z,14.77
2018-11-02T23:54:01.706Z,14.70
2018-11-02T23:56:30.276Z,15.15
2018-11-02T23:58:58.795Z,15.16
